createdAt,value
2023-06-18T00:00:07.047Z,100.00
2023-06-18T00:02:35.096Z,100.00
2023-06-18T00:05:02.913Z,100.00
2023-06-18T00:07:30.740Z,100.00
2023-06-18T00:09:59.436Z,100.00
2023-06-18T00:12:27.195Z,100.00
2023-06-18T00:14:55.016Z,100.00
2023-06-18T00:17:24.441Z,100.00
2023-06-18T00:19:52.281Z,100.00
2023-06-18T00:22:20.060Z,100.00
2023-06-18T00:24:48.096Z,100.00
2023-06-18T00:27:15.937Z,100.00
2023-06-18T00:29:48.373Z,100.00
2023-06-18T00:32:16.541Z,100.00
2023-06-18T00:34:47.510Z,100.00
2023-06-18T00:37:15.889Z,100.00
2023-06-18T00:39:43.900Z,100.00
2023-06-18T00:42:12.272Z,100.00
2023-06-18T00:44:42.281Z,100.00
2023-06-18T00:47:12.911Z,100.00
2023-06-18T00:49:42.725Z,100.00
2023-06-18T00:52:14.523Z,100.00
2023-06-18T00:54:43.946Z,100.00
2023-06-18T00:57:15.232Z,100.00
2023-06-18T00:59:43.803Z,100.00
2023-06-18T01:02:11.928Z,100.00
2023-06-18T01:04:40.884Z,100.00
2023-06-18T01:07:14.273Z,100.00
2023-06-18T01:09:45.219Z,100.00
2023-06-18T01:12:14.466Z,100.00
2023-06-18T01:14:51.415Z,100.00
2023-06-18T01:17:21.904Z,100.00
2023-06-18T01:19:57.019Z,100.00
2023-06-18T01:22:46.464Z,100.00
2023-06-18T01:25:18.126Z,100.00
2023-06-18T01:27:47.619Z,100.00
2023-06-18T01:30:16.550Z,100.00
2023-06-18T01:32:44.416Z,100.00
2023-06-18T01:35:16.317Z,100.00
2023-06-18T01:38:02.444Z,100.00
2023-06-18T01:40:36.848Z,100.00
2023-06-18T01:43:12.707Z,100.00
2023-06-18T01:45:45.005Z,100.00
2023-06-18T01:48:14.028Z,100.00
2023-06-18T01:50:45.106Z,100.00
2023-06-18T01:53:16.238Z,100.00
2023-06-18T01:55:46.643Z,100.00
2023-06-18T01:58:15.343Z,100.00
2023-06-18T02:00:43.216Z,100.00
2023-06-18T02:03:11.108Z,100.00
2023-06-18T02:05:39.151Z,100.00
2023-06-18T02:08:07.125Z,100.00
2023-06-18T02:10:34.901Z,100.00
2023-06-18T02:13:04.260Z,100.00
2023-06-18T02:15:32.011Z,100.00
2023-06-18T02:17:59.854Z,100.00
2023-06-18T02:20:28.061Z,100.00
2023-06-18T02:22:55.947Z,100.00
2023-06-18T02:25:30.114Z,100.00
2023-06-18T02:27:58.744Z,100.00
2023-06-18T02:30:30.180Z,100.00
2023-06-18T02:32:59.921Z,100.00
2023-06-18T02:35:28.090Z,100.00
2023-06-18T02:37:56.246Z,100.00
2023-06-18T02:40:24.752Z,100.00
2023-06-18T02:42:53.352Z,100.00
2023-06-18T02:45:23.305Z,100.00
2023-06-18T02:47:52.916Z,100.00
2023-06-18T02:50:21.935Z,100.00
2023-06-18T02:52:50.131Z,100.00
2023-06-18T02:55:18.207Z,100.00
2023-06-18T02:57:47.635Z,100.00
2023-06-18T03:00:15.825Z,100.00
2023-06-18T03:02:44.410Z,100.00
2023-06-18T03:05:13.633Z,100.00
2023-06-18T03:07:41.455Z,100.00
2023-06-18T03:10:10.380Z,100.00
2023-06-18T03:12:38.322Z,100.00
2023-06-18T03:15:07.989Z,100.00
2023-06-18T03:17:36.082Z,100.00
2023-06-18T03:20:04.458Z,100.00
2023-06-18T03:22:34.002Z,100.00
2023-06-18T03:25:02.370Z,100.00
2023-06-18T03:27:30.242Z,100.00
2023-06-18T03:29:58.549Z,100.00
2023-06-18T03:32:26.608Z,100.00
2023-06-18T03:34:54.403Z,100.00
2023-06-18T03:37:23.322Z,100.00
2023-06-18T03:39:52.660Z,100.00
2023-06-18T03:42:20.608Z,100.00
2023-06-18T03:44:48.399Z,100.00
2023-06-18T03:47:16.750Z,100.00
2023-06-18T03:49:44.592Z,100.00
2023-06-18T03:52:12.401Z,100.00
2023-06-18T03:54:40.705Z,100.00
2023-06-18T03:57:10.949Z,100.00
2023-06-18T03:59:38.738Z,100.00
2023-06-18T04:02:07.578Z,100.00
2023-06-18T04:04:35.465Z,100.00
2023-06-18T04:07:03.355Z,100.00
2023-06-18T04:09:31.357Z,100.00
2023-06-18T04:11:59.103Z,100.00
2023-06-18T04:14:28.404Z,100.00
2023-06-18T04:16:56.783Z,100.00
2023-06-18T04:19:24.580Z,100.00
2023-06-18T04:21:52.350Z,100.00
2023-06-18T04:24:20.607Z,100.00
2023-06-18T04:26:48.430Z,100.00
2023-06-18T04:29:17.054Z,100.00
2023-06-18T04:31:47.259Z,100.00
2023-06-18T04:34:15.698Z,100.00
2023-06-18T04:36:43.484Z,100.00
2023-06-18T04:39:11.635Z,100.00
2023-06-18T04:41:39.368Z,100.00
2023-06-18T04:44:07.161Z,100.00
2023-06-18T04:46:35.268Z,100.00
2023-06-18T04:49:04.686Z,100.00
2023-06-18T04:51:32.508Z,100.00
2023-06-18T04:54:00.527Z,100.00
2023-06-18T04:56:29.413Z,100.00
2023-06-18T04:58:57.189Z,100.00
2023-06-18T05:01:25.244Z,100.00
2023-06-18T05:03:54.151Z,100.00
2023-06-18T05:06:23.422Z,100.00
2023-06-18T05:08:51.869Z,100.00
2023-06-18T05:11:19.638Z,100.00
2023-06-18T05:13:47.622Z,100.00
2023-06-18T05:16:15.865Z,100.00
2023-06-18T05:18:43.645Z,100.00
2023-06-18T05:21:11.512Z,100.00
2023-06-18T05:23:41.092Z,100.00
2023-06-18T05:26:09.079Z,100.00
2023-06-18T05:28:36.854Z,100.00
2023-06-18T05:31:04.874Z,100.00
2023-06-18T05:33:32.645Z,100.00
2023-06-18T05:36:00.453Z,100.00
2023-06-18T05:38:28.439Z,100.00
2023-06-18T05:40:57.544Z,100.00
2023-06-18T05:43:25.386Z,100.00
2023-06-18T05:45:53.451Z,100.00
2023-06-18T05:48:21.259Z,100.00
2023-06-18T05:50:49.367Z,100.00
2023-06-18T05:53:17.403Z,100.00
2023-06-18T05:55:45.311Z,100.00
2023-06-18T05:58:14.432Z,100.00
2023-06-18T06:00:42.443Z,100.00
2023-06-18T06:03:12.166Z,100.00
2023-06-18T06:05:40.081Z,100.00
2023-06-18T06:08:08.787Z,100.00
2023-06-18T06:10:37.456Z,100.00
2023-06-18T06:13:05.326Z,100.00
2023-06-18T06:15:34.701Z,100.00
2023-06-18T06:18:03.452Z,100.00
2023-06-18T06:20:31.946Z,100.00
2023-06-18T06:22:59.952Z,100.00
2023-06-18T06:25:27.707Z,100.00
2023-06-18T06:27:55.628Z,100.00
2023-06-18T06:30:23.905Z,100.00
2023-06-18T06:32:53.288Z,100.00
2023-06-18T06:35:21.168Z,100.00
2023-06-18T06:37:49.165Z,100.00
2023-06-18T06:40:16.956Z,100.00
2023-06-18T06:42:44.737Z,100.00
2023-06-18T06:45:13.126Z,100.00
2023-06-18T06:47:42.270Z,100.00
2023-06-18T06:50:11.778Z,100.00
2023-06-18T06:52:40.023Z,98.25
2023-06-18T06:55:08.385Z,96.08
2023-06-18T06:57:36.211Z,94.45
2023-06-18T07:00:05.130Z,94.29
2023-06-18T07:02:34.739Z,92.60
2023-06-18T07:05:02.860Z,89.71
2023-06-18T07:07:32.417Z,87.91
2023-06-18T07:10:00.204Z,86.97
2023-06-18T07:12:27.955Z,85.05
2023-06-18T07:14:56.119Z,84.39
2023-06-18T07:17:23.921Z,82.05
2023-06-18T07:19:53.680Z,78.97
2023-06-18T07:22:21.793Z,80.96
2023-06-18T07:24:50.926Z,81.83
2023-06-18T07:27:18.872Z,82.71
2023-06-18T07:29:46.970Z,76.58
2023-06-18T07:32:14.750Z,75.72
2023-06-18T07:34:42.530Z,73.13
2023-06-18T07:37:10.668Z,71.06
2023-06-18T07:39:38.421Z,70.50
2023-06-18T07:42:08.133Z,71.52
2023-06-18T07:44:37.664Z,74.40
2023-06-18T07:47:05.914Z,72.23
2023-06-18T07:49:33.719Z,71.90
2023-06-18T07:52:02.542Z,71.77
2023-06-18T07:54:30.667Z,70.27
2023-06-18T07:56:58.424Z,71.61
2023-06-18T07:59:27.774Z,71.90
2023-06-18T08:01:55.678Z,72.21
2023-06-18T08:04:23.555Z,71.42
2023-06-18T08:06:51.978Z,71.13
2023-06-18T08:09:20.616Z,68.62
2023-06-18T08:11:49.898Z,68.34
2023-06-18T08:14:19.441Z,67.45
2023-06-18T08:16:48.622Z,67.93
2023-06-18T08:19:16.399Z,66.91
2023-06-18T08:21:44.439Z,66.22
2023-06-18T08:24:13.811Z,65.82
2023-06-18T08:26:41.737Z,62.64
2023-06-18T08:29:09.767Z,62.64
2023-06-18T08:31:42.149Z,61.76
2023-06-18T08:34:12.244Z,63.78
2023-06-18T08:36:40.107Z,61.39
2023-06-18T08:39:08.223Z,62.47
2023-06-18T08:41:36.919Z,59.60
2023-06-18T08:44:05.083Z,60.79
2023-06-18T08:46:37.575Z,60.93
2023-06-18T08:49:09.157Z,60.83
2023-06-18T08:51:40.055Z,59.78
2023-06-18T08:54:14.632Z,58.47
2023-06-18T08:56:45.585Z,60.80
2023-06-18T08:59:14.561Z,58.28
2023-06-18T09:01:43.691Z,56.50
2023-06-18T09:04:12.904Z,56.93
2023-06-18T09:06:43.961Z,57.49
2023-06-18T09:09:12.184Z,55.40
2023-06-18T09:11:40.275Z,56.04
2023-06-18T09:14:08.530Z,56.45
2023-06-18T09:16:36.474Z,57.58
2023-06-18T09:19:06.006Z,58.21
2023-06-18T09:21:38.429Z,57.95
2023-06-18T09:24:10.066Z,54.56
2023-06-18T09:26:38.547Z,54.19
2023-06-18T09:29:07.132Z,50.83
2023-06-18T09:31:35.798Z,50.10
2023-06-18T09:34:16.768Z,50.30
2023-06-18T09:36:46.160Z,49.62
2023-06-18T09:39:19.976Z,46.45
2023-06-18T09:41:50.254Z,49.75
2023-06-18T09:44:20.426Z,50.56
2023-06-18T09:46:50.233Z,48.64
2023-06-18T09:49:19.852Z,49.99
2023-06-18T09:51:50.598Z,48.54
2023-06-18T09:54:20.185Z,49.47
2023-06-18T09:56:58.310Z,48.28
2023-06-18T09:59:26.728Z,47.33
2023-06-18T10:01:56.183Z,45.47
2023-06-18T10:04:24.338Z,44.97
2023-06-18T10:06:53.560Z,45.81
2023-06-18T10:09:25.116Z,46.68
2023-06-18T10:11:55.189Z,47.48
2023-06-18T10:14:25.131Z,44.53
2023-06-18T10:16:54.355Z,45.30
2023-06-18T10:19:26.188Z,42.33
2023-06-18T10:21:58.315Z,41.56
2023-06-18T10:24:35.412Z,42.05
2023-06-18T10:27:04.621Z,42.21
2023-06-18T10:29:34.494Z,40.97
2023-06-18T10:32:03.785Z,39.99
2023-06-18T10:34:32.272Z,40.26
2023-06-18T10:37:01.445Z,41.44
2023-06-18T10:39:31.730Z,37.34
2023-06-18T10:42:13.143Z,37.57
2023-06-18T10:44:52.546Z,36.61
2023-06-18T10:47:22.219Z,38.92
2023-06-18T10:50:18.410Z,40.19
2023-06-18T10:52:49.569Z,38.27
2023-06-18T10:55:32.175Z,32.24
2023-06-18T10:58:03.712Z,34.93
2023-06-18T11:00:37.490Z,34.60
2023-06-18T11:03:07.494Z,35.82
2023-06-18T11:05:46.729Z,35.40
2023-06-18T11:08:16.958Z,35.80
2023-06-18T11:10:49.426Z,33.51
2023-06-18T11:13:18.928Z,33.11
2023-06-18T11:16:00.115Z,32.77
2023-06-18T11:18:29.639Z,36.78
2023-06-18T11:20:58.462Z,34.08
2023-06-18T11:23:27.755Z,33.36
2023-06-18T11:25:57.251Z,33.03
2023-06-18T11:28:26.852Z,33.98
2023-06-18T11:30:58.220Z,34.99
2023-06-18T11:33:27.447Z,34.19
2023-06-18T11:35:56.225Z,33.25
2023-06-18T11:38:26.587Z,31.82
2023-06-18T11:40:56.205Z,33.74
2023-06-18T11:43:25.702Z,34.68
2023-06-18T11:45:55.058Z,31.40
2023-06-18T11:48:23.683Z,31.01
2023-06-18T11:50:54.785Z,34.74
2023-06-18T11:53:23.691Z,32.57
2023-06-18T11:55:55.730Z,31.62
2023-06-18T11:58:25.132Z,32.66
2023-06-18T12:00:52.944Z,30.72
2023-06-18T12:03:20.732Z,32.96
2023-06-18T12:05:48.793Z,31.82
2023-06-18T12:08:16.614Z,30.85
2023-06-18T12:10:44.630Z,30.96
2023-06-18T12:13:21.258Z,32.92
2023-06-18T12:15:56.114Z,33.49
2023-06-18T12:18:26.994Z,31.52
2023-06-18T12:20:55.264Z,30.59
2023-06-18T12:23:23.760Z,31.04
2023-06-18T12:25:54.765Z,30.36
2023-06-18T12:28:24.840Z,30.50
2023-06-18T12:30:54.227Z,31.38
2023-06-18T12:33:22.238Z,30.38
2023-06-18T12:35:55.394Z,30.66
2023-06-18T12:38:23.994Z,30.43
2023-06-18T12:40:54.963Z,31.92
2023-06-18T12:43:23.800Z,31.09
2023-06-18T12:45:54.269Z,30.61
2023-06-18T12:48:26.167Z,30.08
2023-06-18T12:50:55.562Z,30.00
2023-06-18T12:53:25.769Z,30.11
2023-06-18T12:55:55.548Z,30.71
2023-06-18T12:58:25.712Z,30.65
2023-06-18T13:00:56.014Z,31.20
2023-06-18T13:03:25.030Z,31.36
2023-06-18T13:05:53.216Z,31.41
2023-06-18T13:08:23.179Z,31.46
2023-06-18T13:10:56.501Z,31.32
2023-06-18T13:13:24.984Z,31.19
2023-06-18T13:15:54.432Z,30.31
2023-06-18T13:18:22.748Z,30.60
2023-06-18T13:20:51.521Z,31.88
2023-06-18T13:23:20.073Z,32.03
2023-06-18T13:25:48.004Z,31.20
2023-06-18T13:28:18.143Z,30.15
2023-06-18T13:30:46.374Z,30.28
2023-06-18T13:33:15.619Z,31.48
2023-06-18T13:35:43.397Z,29.29
2023-06-18T13:38:11.591Z,28.82
2023-06-18T13:40:39.398Z,28.71
2023-06-18T13:43:07.261Z,29.64
2023-06-18T13:45:35.282Z,29.89
2023-06-18T13:48:03.185Z,28.60
2023-06-18T13:50:32.397Z,29.37
2023-06-18T13:53:00.392Z,31.18
2023-06-18T13:55:29.231Z,30.43
2023-06-18T13:57:57.063Z,30.04
2023-06-18T14:00:25.103Z,28.65
2023-06-18T14:02:53.133Z,29.68
2023-06-18T14:05:21.523Z,28.44
2023-06-18T14:07:51.367Z,25.38
2023-06-18T14:10:19.243Z,26.28
2023-06-18T14:12:47.684Z,28.17
2023-06-18T14:15:15.938Z,27.60
2023-06-18T14:17:47.336Z,28.14
2023-06-18T14:20:17.326Z,27.31
2023-06-18T14:22:45.916Z,27.38
2023-06-18T14:25:15.079Z,28.48
2023-06-18T14:27:43.033Z,25.82
2023-06-18T14:30:13.283Z,26.83
2023-06-18T14:32:43.250Z,26.85
2023-06-18T14:35:11.678Z,27.06
2023-06-18T14:37:39.515Z,27.02
2023-06-18T14:40:08.421Z,26.60
2023-06-18T14:42:37.649Z,27.86
2023-06-18T14:45:06.667Z,26.83
2023-06-18T14:47:36.293Z,26.96
2023-06-18T14:50:04.951Z,28.25
2023-06-18T14:52:32.988Z,28.12
2023-06-18T14:55:00.906Z,28.07
2023-06-18T14:57:28.681Z,25.75
2023-06-18T14:59:59.656Z,25.49
2023-06-18T15:02:29.199Z,26.64
2023-06-18T15:04:59.167Z,25.48
2023-06-18T15:07:27.460Z,26.54
2023-06-18T15:09:55.237Z,27.22
2023-06-18T15:12:23.277Z,26.67
2023-06-18T15:14:51.084Z,27.00
2023-06-18T15:17:21.799Z,28.37
2023-06-18T15:19:57.059Z,25.17
2023-06-18T15:22:25.823Z,25.92
2023-06-18T15:24:54.822Z,26.67
2023-06-18T15:27:22.685Z,27.97
2023-06-18T15:29:50.493Z,26.62
2023-06-18T15:32:19.907Z,28.30
2023-06-18T15:34:48.626Z,28.92
2023-06-18T15:37:17.913Z,27.94
2023-06-18T15:39:48.059Z,28.30
2023-06-18T15:42:16.400Z,27.29
2023-06-18T15:44:44.445Z,27.00
2023-06-18T15:47:12.762Z,27.22
2023-06-18T15:49:42.350Z,26.50
2023-06-18T15:52:10.190Z,26.80
2023-06-18T15:54:38.295Z,27.44
2023-06-18T15:57:06.664Z,27.94
2023-06-18T15:59:34.669Z,28.02
2023-06-18T16:02:03.911Z,27.57
2023-06-18T16:04:31.891Z,27.24
2023-06-18T16:07:01.073Z,27.80
2023-06-18T16:09:29.148Z,27.91
2023-06-18T16:11:56.961Z,27.83
2023-06-18T16:14:24.877Z,28.07
2023-06-18T16:16:52.928Z,28.32
2023-06-18T16:19:22.775Z,28.72
2023-06-18T16:21:52.781Z,28.07
2023-06-18T16:24:22.255Z,28.67
2023-06-18T16:26:50.087Z,28.74
2023-06-18T16:29:17.872Z,28.42
2023-06-18T16:31:45.937Z,28.72
2023-06-18T16:34:13.719Z,29.45
2023-06-18T16:36:44.462Z,29.77
2023-06-18T16:39:12.747Z,28.95
2023-06-18T16:41:41.876Z,28.01
2023-06-18T16:44:09.657Z,29.19
2023-06-18T16:46:38.325Z,30.20
2023-06-18T16:49:06.179Z,29.03
2023-06-18T16:51:36.520Z,29.66
2023-06-18T16:54:05.710Z,27.19
2023-06-18T16:56:33.541Z,27.73
2023-06-18T16:59:02.693Z,27.89
2023-06-18T17:01:31.030Z,27.52
2023-06-18T17:03:59.336Z,27.97
2023-06-18T17:06:27.104Z,28.34
2023-06-18T17:08:55.274Z,28.87
2023-06-18T17:11:24.635Z,29.41
2023-06-18T17:13:52.636Z,28.42
2023-06-18T17:16:23.009Z,29.10
2023-06-18T17:18:50.904Z,28.76
2023-06-18T17:21:18.982Z,29.44
2023-06-18T17:23:47.030Z,30.54
2023-06-18T17:26:14.809Z,29.58
2023-06-18T17:28:42.634Z,29.95
2023-06-18T17:31:10.674Z,29.81
2023-06-18T17:33:41.367Z,31.71
2023-06-18T17:36:09.310Z,31.65
2023-06-18T17:38:37.385Z,32.19
2023-06-18T17:41:05.256Z,33.17
2023-06-18T17:43:33.059Z,33.12
2023-06-18T17:46:15.809Z,33.13
2023-06-18T17:48:45.982Z,33.84
2023-06-18T17:51:14.188Z,34.85
2023-06-18T17:53:42.969Z,35.65
2023-06-18T17:56:10.955Z,35.15
2023-06-18T17:58:39.318Z,36.83
2023-06-18T18:01:07.866Z,36.74
2023-06-18T18:03:36.092Z,37.44
2023-06-18T18:06:05.882Z,39.50
2023-06-18T18:08:34.020Z,41.07
2023-06-18T18:11:01.860Z,41.54
2023-06-18T18:13:30.457Z,42.15
2023-06-18T18:16:02.549Z,43.08
2023-06-18T18:18:31.886Z,43.59
2023-06-18T18:21:00.417Z,44.14
2023-06-18T18:23:29.812Z,44.93
2023-06-18T18:26:09.997Z,45.39
2023-06-18T18:28:39.497Z,46.72
2023-06-18T18:31:07.571Z,47.61
2023-06-18T18:33:35.814Z,48.00
2023-06-18T18:36:07.755Z,48.77
2023-06-18T18:38:42.059Z,50.79
2023-06-18T18:41:15.313Z,51.11
2023-06-18T18:43:46.917Z,52.43
2023-06-18T18:46:14.941Z,52.78
2023-06-18T18:48:42.781Z,54.29
2023-06-18T18:51:10.566Z,53.65
2023-06-18T18:53:40.481Z,53.61
2023-06-18T18:56:08.689Z,54.01
2023-06-18T18:58:37.132Z,55.09
2023-06-18T19:01:05.437Z,55.08
2023-06-18T19:03:33.495Z,55.30
2023-06-18T19:06:01.419Z,55.42
2023-06-18T19:08:29.867Z,55.49
2023-06-18T19:10:59.024Z,55.42
2023-06-18T19:13:26.931Z,55.65
2023-06-18T19:15:54.702Z,56.11
2023-06-18T19:18:22.500Z,56.72
2023-06-18T19:20:56.380Z,56.79
2023-06-18T19:23:24.446Z,57.44
2023-06-18T19:25:52.487Z,58.02
2023-06-18T19:28:23.227Z,58.54
2023-06-18T19:30:51.250Z,58.69
2023-06-18T19:33:19.076Z,58.86
2023-06-18T19:35:47.050Z,59.42
2023-06-18T19:38:15.220Z,59.67
2023-06-18T19:40:43.052Z,60.01
2023-06-18T19:43:12.763Z,60.55
2023-06-18T19:45:42.258Z,60.90
2023-06-18T19:48:10.253Z,60.94
2023-06-18T19:50:39.049Z,61.03
2023-06-18T19:53:07.238Z,60.53
2023-06-18T19:55:35.121Z,60.92
2023-06-18T19:58:02.947Z,60.61
2023-06-18T20:00:33.193Z,61.27
2023-06-18T20:03:02.696Z,61.63
2023-06-18T20:05:30.512Z,62.11
2023-06-18T20:07:59.308Z,62.91
2023-06-18T20:10:27.316Z,63.56
2023-06-18T20:12:55.161Z,63.89
2023-06-18T20:15:23.494Z,63.98
2023-06-18T20:17:51.584Z,65.17
2023-06-18T20:20:21.627Z,66.47
2023-06-18T20:22:49.775Z,67.50
2023-06-18T20:25:17.967Z,68.00
2023-06-18T20:27:47.859Z,68.86
2023-06-18T20:30:15.859Z,69.80
2023-06-18T20:32:43.913Z,70.12
2023-06-18T20:35:11.820Z,70.79
2023-06-18T20:37:40.983Z,71.33
2023-06-18T20:40:10.306Z,71.90
2023-06-18T20:42:38.079Z,72.56
2023-06-18T20:45:06.881Z,73.02
2023-06-18T20:47:34.994Z,74.00
2023-06-18T20:50:03.245Z,75.63
2023-06-18T20:52:31.090Z,77.16
2023-06-18T20:55:00.458Z,76.39
2023-06-18T20:57:28.235Z,76.15
2023-06-18T20:59:56.176Z,76.31
2023-06-18T21:02:26.530Z,77.32
2023-06-18T21:04:54.858Z,78.17
2023-06-18T21:07:22.630Z,78.02
2023-06-18T21:09:50.691Z,78.43
2023-06-18T21:12:19.819Z,78.99
2023-06-18T21:14:47.606Z,79.88
2023-06-18T21:17:15.772Z,79.95
2023-06-18T21:19:43.638Z,80.19
2023-06-18T21:22:11.482Z,82.11
2023-06-18T21:24:39.606Z,82.62
2023-06-18T21:27:08.020Z,83.48
2023-06-18T21:29:37.503Z,84.08
2023-06-18T21:32:06.209Z,84.96
2023-06-18T21:34:33.979Z,85.26
2023-06-18T21:37:01.805Z,85.49
2023-06-18T21:39:29.799Z,85.79
2023-06-18T21:41:58.656Z,86.78
2023-06-18T21:44:27.043Z,87.11
2023-06-18T21:46:56.457Z,87.85
2023-06-18T21:49:24.250Z,88.35
2023-06-18T21:51:52.035Z,88.66
2023-06-18T21:54:20.043Z,89.63
2023-06-18T21:56:47.819Z,89.72
2023-06-18T21:59:15.729Z,90.20
2023-06-18T22:01:43.750Z,89.78
2023-06-18T22:04:14.245Z,89.74
2023-06-18T22:06:42.047Z,90.10
2023-06-18T22:09:10.085Z,90.09
2023-06-18T22:11:38.112Z,91.25
2023-06-18T22:14:05.900Z,91.97
2023-06-18T22:16:34.135Z,93.93
2023-06-18T22:19:12.789Z,94.49
2023-06-18T22:21:41.218Z,94.58
2023-06-18T22:24:11.213Z,94.91
2023-06-18T22:26:39.564Z,94.64
2023-06-18T22:29:07.600Z,94.69
2023-06-18T22:31:35.608Z,95.38
2023-06-18T22:34:03.436Z,96.04
2023-06-18T22:36:32.794Z,96.34
2023-06-18T22:39:00.586Z,96.36
2023-06-18T22:41:28.347Z,96.56
2023-06-18T22:43:56.603Z,96.26
2023-06-18T22:46:24.427Z,94.80
2023-06-18T22:48:52.327Z,93.40
2023-06-18T22:51:20.372Z,94.78
2023-06-18T22:53:49.482Z,94.71
2023-06-18T22:56:17.820Z,94.60
2023-06-18T22:58:45.954Z,94.28
2023-06-18T23:01:13.742Z,94.04
2023-06-18T23:03:41.617Z,93.72
2023-06-18T23:06:09.666Z,94.25
2023-06-18T23:08:37.449Z,94.35
2023-06-18T23:11:06.612Z,93.72
2023-06-18T23:13:34.640Z,93.79
2023-06-18T23:16:02.427Z,94.17
2023-06-18T23:18:30.180Z,94.92
2023-06-18T23:20:58.345Z,95.20
2023-06-18T23:23:29.715Z,95.31
2023-06-18T23:25:57.697Z,95.82
2023-06-18T23:28:27.653Z,95.99
2023-06-18T23:30:55.753Z,96.44
2023-06-18T23:33:23.851Z,97.23
2023-06-18T23:35:52.583Z,98.08
2023-06-18T23:38:20.430Z,98.17
2023-06-18T23:40:48.215Z,98.57
2023-06-18T23:43:16.333Z,99.09
2023-06-18T23:45:45.470Z,99.59
2023-06-18T23:48:13.343Z,99.97
2023-06-18T23:50:42.315Z,100.00
2023-06-18T23:53:10.150Z,100.00
2023-06-18T23:55:38.768Z,100.00
2023-06-18T23:58:06.827Z,100.00
